CheckWX is a tool to help pilots better visualize weather data.  It is not intended as a substitute for an official pre-flight weather briefing.

22:52:54 UTC

LFPV TAF
Villacoublay-Vélizy (BA 107) Air Base Airport
Villacoublay/Vélizy, France
TAF LFPV 222000Z 2221/2321 10010KT CAVOK TEMPO 2221/2314 11010G25KT TEMPO 2223/2308 -RADZ TEMPO 2304/2309 SCT009

Nov-22@
21:00 UTC

Nov-22 @ 21:00 UTC

Nov-23@
21:00 UTC

Nov-23 @ 21:00 UTC

TAF LFPV 222000Z 2221/2321 10010KT CAVOK
Wind
  • 100° at 10 KTS
Conditions
No significant weather
Cloud Levels
  • No significant clouds

Nov-22@
21:00 UTC

Nov-22 @ 21:00 UTC

Nov-23@
14:00 UTC

Nov-23 @ 14:00 UTC

TEMPO 2221/2314 11010G25KT

Temporary

Temporary Changes expected for less than half the time period

Wind
  • 110° at 10 KTS
  • {Gusting to 25 KTS

Nov-22@
23:00 UTC

Nov-22 @ 23:00 UTC

Nov-23@
08:00 UTC

Nov-23 @ 08:00 UTC

TEMPO 2223/2308 -RADZ

Temporary

Temporary Changes expected for less than half the time period

Conditions
Light Rain, Light Drizzle

Nov-23@
04:00 UTC

Nov-23 @ 04:00 UTC

Nov-23@
09:00 UTC

Nov-23 @ 09:00 UTC

TEMPO 2304/2309 SCT009

Temporary

Temporary Changes expected for less than half the time period

Cloud Levels
  • Scattered at 900' AGL